createdAt,value
2023-05-14T00:01:36.318Z,12.20
2023-05-14T00:04:04.571Z,12.20
2023-05-14T00:06:31.989Z,12.20
2023-05-14T00:08:59.162Z,12.20
2023-05-14T00:11:26.438Z,12.10
2023-05-14T00:13:53.532Z,12.10
2023-05-14T00:16:20.632Z,12.10
2023-05-14T00:18:47.835Z,12.00
2023-05-14T00:21:14.963Z,12.00
2023-05-14T00:23:42.080Z,12.00
2023-05-14T00:26:09.169Z,11.90
2023-05-14T00:28:37.289Z,11.90
2023-05-14T00:31:04.785Z,11.90
2023-05-14T00:33:32.380Z,11.90
2023-05-14T00:36:00.196Z,11.80
2023-05-14T00:38:28.593Z,11.80
2023-05-14T00:40:55.959Z,11.70
2023-05-14T00:43:23.501Z,11.70
2023-05-14T00:45:54.258Z,11.60
2023-05-14T00:48:22.898Z,11.60
2023-05-14T00:50:51.169Z,11.60
2023-05-14T00:53:21.954Z,14.30
2023-05-14T00:55:50.587Z,11.60
2023-05-14T00:58:19.473Z,11.60
2023-05-14T01:00:46.585Z,11.60
2023-05-14T01:03:13.717Z,11.50
2023-05-14T01:06:00.983Z,11.50
2023-05-14T01:08:45.054Z,11.60
2023-05-14T01:11:22.471Z,11.50
2023-05-14T01:14:05.719Z,11.50
2023-05-14T01:16:35.671Z,11.50
2023-05-14T01:19:07.730Z,11.50
2023-05-14T01:21:40.470Z,11.50
2023-05-14T01:24:08.836Z,11.40
2023-05-14T01:26:37.431Z,11.40
2023-05-14T01:29:16.253Z,11.40
2023-05-14T01:31:46.247Z,11.30
2023-05-14T01:34:19.985Z,11.20
2023-05-14T01:36:49.342Z,9.20
2023-05-14T01:39:17.757Z,11.20
2023-05-14T01:41:46.718Z,11.10
2023-05-14T01:44:14.441Z,11.10
2023-05-14T01:46:41.618Z,11.10
2023-05-14T01:49:08.859Z,11.00
2023-05-14T01:51:36.144Z,11.00
2023-05-14T01:54:03.441Z,10.90
2023-05-14T01:56:30.610Z,10.80
2023-05-14T01:58:57.686Z,11.00
2023-05-14T02:01:26.291Z,10.80
2023-05-14T02:03:53.717Z,10.90
2023-05-14T02:06:21.936Z,10.70
2023-05-14T02:08:49.065Z,10.70
2023-05-14T02:11:16.254Z,10.60
2023-05-14T02:13:43.575Z,10.60
2023-05-14T02:16:10.836Z,10.60
2023-05-14T02:18:37.975Z,10.50
2023-05-14T02:21:05.308Z,10.50
2023-05-14T02:23:40.978Z,10.40
2023-05-14T02:26:10.763Z,10.40
2023-05-14T02:28:38.125Z,10.40
2023-05-14T02:31:05.289Z,10.30
2023-05-14T02:33:32.716Z,10.30
2023-05-14T02:35:59.885Z,10.20
2023-05-14T02:38:27.320Z,10.20
2023-05-14T02:40:57.008Z,10.10
2023-05-14T02:43:24.167Z,10.10
2023-05-14T02:45:52.445Z,10.10
2023-05-14T02:48:19.624Z,10.10
2023-05-14T02:50:47.032Z,10.00
2023-05-14T02:53:14.140Z,10.00
2023-05-14T02:55:41.372Z,9.90
2023-05-14T02:58:08.635Z,9.90
2023-05-14T03:00:36.052Z,9.80
2023-05-14T03:03:03.709Z,9.80
2023-05-14T03:05:31.217Z,9.80
2023-05-14T03:07:58.949Z,9.80
2023-05-14T03:10:26.267Z,9.20
2023-05-14T03:12:53.670Z,9.70
2023-05-14T03:15:20.910Z,9.70
2023-05-14T03:17:48.085Z,9.70
2023-05-14T03:20:16.279Z,9.60
2023-05-14T03:22:43.522Z,9.60
2023-05-14T03:25:10.632Z,9.60
2023-05-14T03:27:37.713Z,9.50
2023-05-14T03:30:06.003Z,9.50
2023-05-14T03:32:33.384Z,9.40
2023-05-14T03:35:00.557Z,9.40
2023-05-14T03:37:27.650Z,9.40
2023-05-14T03:39:54.700Z,9.30
2023-05-14T03:42:21.818Z,9.30
2023-05-14T03:44:48.923Z,9.20
2023-05-14T03:47:16.127Z,9.20
2023-05-14T03:49:43.275Z,9.20
2023-05-14T03:52:12.344Z,9.10
2023-05-14T03:54:41.327Z,9.40
2023-05-14T03:57:08.568Z,9.10
2023-05-14T03:59:35.760Z,9.10
2023-05-14T04:02:02.852Z,9.10
2023-05-14T04:04:30.068Z,9.00
2023-05-14T04:06:57.269Z,9.00
2023-05-14T04:09:24.365Z,9.00
2023-05-14T04:11:51.448Z,9.00
2023-05-14T04:14:18.635Z,8.90
2023-05-14T04:16:45.787Z,8.90
2023-05-14T04:19:13.019Z,8.90
2023-05-14T04:21:40.407Z,8.90
2023-05-14T04:24:08.011Z,11.20
2023-05-14T04:26:35.382Z,8.80
2023-05-14T04:29:03.473Z,8.80
2023-05-14T04:31:31.750Z,8.80
2023-05-14T04:33:58.978Z,8.80
2023-05-14T04:36:26.352Z,8.80
2023-05-14T04:38:53.456Z,8.80
2023-05-14T04:41:21.140Z,8.70
2023-05-14T04:43:50.895Z,8.70
2023-05-14T04:46:18.076Z,8.70
2023-05-14T04:48:45.240Z,8.80
2023-05-14T04:51:12.391Z,8.80
2023-05-14T04:53:39.503Z,8.80
2023-05-14T04:56:06.955Z,8.10
2023-05-14T04:58:35.264Z,8.80
2023-05-14T05:01:05.228Z,8.80
2023-05-14T05:03:32.668Z,8.90
2023-05-14T05:05:59.795Z,8.90
2023-05-14T05:08:26.983Z,9.00
2023-05-14T05:10:54.094Z,9.00
2023-05-14T05:13:21.196Z,9.10
2023-05-14T05:15:48.343Z,9.10
2023-05-14T05:18:15.583Z,9.10
2023-05-14T05:20:42.696Z,9.20
2023-05-14T05:23:09.827Z,9.20
2023-05-14T05:25:36.927Z,9.30
2023-05-14T05:28:04.172Z,9.30
2023-05-14T05:30:31.454Z,9.30
2023-05-14T05:32:58.679Z,9.40
2023-05-14T05:35:25.790Z,9.40
2023-05-14T05:37:52.860Z,9.40
2023-05-14T05:40:20.099Z,9.50
2023-05-14T05:42:47.158Z,9.50
2023-05-14T05:45:14.322Z,9.50
2023-05-14T05:47:41.624Z,9.60
2023-05-14T05:50:09.832Z,9.60
2023-05-14T05:52:37.132Z,9.60
2023-05-14T05:55:04.668Z,9.90
2023-05-14T05:57:31.776Z,9.70
2023-05-14T05:59:58.841Z,9.70
2023-05-14T06:02:26.211Z,9.70
2023-05-14T06:04:53.437Z,9.70
2023-05-14T06:07:20.598Z,9.70
2023-05-14T06:09:47.673Z,9.80
2023-05-14T06:12:14.760Z,9.80
2023-05-14T06:14:41.854Z,9.80
2023-05-14T06:17:09.038Z,9.90
2023-05-14T06:19:36.145Z,9.90
2023-05-14T06:22:03.282Z,10.00
2023-05-14T06:24:30.410Z,10.00
2023-05-14T06:26:57.535Z,10.10
2023-05-14T06:29:25.417Z,10.10
2023-05-14T06:31:52.911Z,10.10
2023-05-14T06:34:20.112Z,10.20
2023-05-14T06:36:47.195Z,10.30
2023-05-14T06:39:14.253Z,10.30
2023-05-14T06:41:41.386Z,10.40
2023-05-14T06:44:14.371Z,10.50
2023-05-14T06:46:41.465Z,10.50
2023-05-14T06:49:08.623Z,10.70
2023-05-14T06:51:35.825Z,10.70
2023-05-14T06:54:02.915Z,10.80
2023-05-14T06:56:30.035Z,10.90
2023-05-14T06:58:57.079Z,11.00
2023-05-14T07:01:24.193Z,11.10
2023-05-14T07:03:51.390Z,11.20
2023-05-14T07:06:18.553Z,11.30
2023-05-14T07:08:48.158Z,11.40
2023-05-14T07:11:15.678Z,11.50
2023-05-14T07:13:43.490Z,11.50
2023-05-14T07:16:10.597Z,11.60
2023-05-14T07:18:38.180Z,11.90
2023-05-14T07:21:06.588Z,11.80
2023-05-14T07:23:36.633Z,11.90
2023-05-14T07:26:06.095Z,11.90
2023-05-14T07:28:33.445Z,11.90
2023-05-14T07:31:01.139Z,12.00
2023-05-14T07:33:28.297Z,12.10
2023-05-14T07:35:55.413Z,12.20
2023-05-14T07:38:22.761Z,12.20
2023-05-14T07:40:49.901Z,12.30
2023-05-14T07:43:17.250Z,12.40
2023-05-14T07:45:45.636Z,12.50
2023-05-14T07:48:12.778Z,12.60
2023-05-14T07:50:40.041Z,17.10
2023-05-14T07:53:07.155Z,12.70
2023-05-14T07:55:34.310Z,12.80
2023-05-14T07:58:01.439Z,12.70
2023-05-14T08:00:28.619Z,12.90
2023-05-14T08:02:56.145Z,12.90
2023-05-14T08:05:23.373Z,13.00
2023-05-14T08:07:50.454Z,13.10
2023-05-14T08:10:17.605Z,13.20
2023-05-14T08:12:44.712Z,13.40
2023-05-14T08:15:12.462Z,13.50
2023-05-14T08:17:42.974Z,13.60
2023-05-14T08:20:12.001Z,13.70
2023-05-14T08:22:39.170Z,13.80
2023-05-14T08:25:07.834Z,13.90
2023-05-14T08:27:34.920Z,14.00
2023-05-14T08:30:02.018Z,14.10
2023-05-14T08:32:29.699Z,14.20
2023-05-14T08:34:56.786Z,14.20
2023-05-14T08:37:23.895Z,14.30
2023-05-14T08:39:51.075Z,14.40
2023-05-14T08:42:22.034Z,14.50
2023-05-14T08:44:54.238Z,14.60
2023-05-14T08:47:24.808Z,14.70
2023-05-14T08:50:10.634Z,14.80
2023-05-14T08:52:38.083Z,14.80
2023-05-14T08:55:06.859Z,14.90
2023-05-14T08:57:35.158Z,15.00
2023-05-14T09:00:23.368Z,15.00
2023-05-14T09:02:52.278Z,15.20
2023-05-14T09:05:21.011Z,15.20
2023-05-14T09:07:48.333Z,15.40
2023-05-14T09:10:16.534Z,15.50
2023-05-14T09:12:43.650Z,15.60
2023-05-14T09:15:11.034Z,15.60
2023-05-14T09:17:38.242Z,15.80
2023-05-14T09:20:06.996Z,15.80
2023-05-14T09:22:35.970Z,16.10
2023-05-14T09:25:12.274Z,16.10
2023-05-14T09:27:39.704Z,16.20
2023-05-14T09:30:10.371Z,16.30
2023-05-14T09:32:50.364Z,16.40
2023-05-14T09:35:23.984Z,16.40
2023-05-14T09:37:54.515Z,16.40
2023-05-14T09:40:24.596Z,16.40
2023-05-14T09:42:52.021Z,16.50
2023-05-14T09:45:19.161Z,16.50
2023-05-14T09:47:46.598Z,16.60
2023-05-14T09:50:13.979Z,16.60
2023-05-14T09:52:41.142Z,16.60
2023-05-14T09:55:08.881Z,16.70
2023-05-14T09:57:36.088Z,16.80
2023-05-14T10:00:04.000Z,16.80
2023-05-14T10:02:38.182Z,16.80
2023-05-14T10:05:07.216Z,16.90
2023-05-14T10:07:48.176Z,16.80
2023-05-14T10:10:27.213Z,17.00
2023-05-14T10:13:04.598Z,17.00
2023-05-14T10:15:43.023Z,17.10
2023-05-14T10:18:17.913Z,17.10
2023-05-14T10:20:57.242Z,17.20
2023-05-14T10:23:24.649Z,17.20
2023-05-14T10:25:51.789Z,17.20
2023-05-14T10:28:19.377Z,17.30
2023-05-14T10:30:47.133Z,17.30
2023-05-14T10:33:16.804Z,17.20
2023-05-14T10:36:07.202Z,17.20
2023-05-14T10:38:37.082Z,17.20
2023-05-14T10:41:12.276Z,17.20
2023-05-14T10:43:41.991Z,17.10
2023-05-14T10:46:11.701Z,17.20
2023-05-14T10:48:44.312Z,17.00
2023-05-14T10:51:12.405Z,17.20
2023-05-14T10:53:43.304Z,17.20
2023-05-14T10:56:14.142Z,17.30
2023-05-14T10:58:44.806Z,17.40
2023-05-14T11:01:13.877Z,17.50
2023-05-14T11:03:46.695Z,17.50
2023-05-14T11:06:16.393Z,17.60
2023-05-14T11:08:44.772Z,17.60
2023-05-14T11:11:13.202Z,17.60
2023-05-14T11:13:42.792Z,17.70
2023-05-14T11:18:41.986Z,17.80
2023-05-14T11:21:09.269Z,17.90
2023-05-14T11:23:36.439Z,18.10
2023-05-14T11:26:03.987Z,18.20
2023-05-14T11:28:31.178Z,18.30
2023-05-14T11:30:59.217Z,18.30
2023-05-14T11:33:28.264Z,18.60
2023-05-14T11:35:55.434Z,18.80
2023-05-14T11:38:22.577Z,18.90
2023-05-14T11:40:58.847Z,19.20
2023-05-14T11:43:29.216Z,19.30
2023-05-14T11:45:56.830Z,19.60
2023-05-14T11:48:24.596Z,19.70
2023-05-14T11:50:53.406Z,19.90
2023-05-14T11:53:30.146Z,20.20
2023-05-14T11:55:58.048Z,20.40
2023-05-14T11:58:26.156Z,20.50
2023-05-14T12:00:56.035Z,20.70
2023-05-14T12:03:26.521Z,20.80
2023-05-14T12:05:59.200Z,20.80
2023-05-14T12:08:30.310Z,20.90
2023-05-14T12:11:00.746Z,20.60
2023-05-14T12:13:29.861Z,21.10
2023-05-14T12:16:00.409Z,21.20
2023-05-14T12:18:30.717Z,21.40
2023-05-14T12:21:04.315Z,21.20
2023-05-14T12:23:32.771Z,21.40
2023-05-14T12:26:06.391Z,21.30
2023-05-14T12:28:37.560Z,21.40
2023-05-14T12:31:05.795Z,21.40
2023-05-14T12:33:32.973Z,21.40
2023-05-14T12:36:14.059Z,21.30
2023-05-14T12:38:48.957Z,21.40
2023-05-14T12:41:16.391Z,21.40
2023-05-14T12:43:44.524Z,21.30
2023-05-14T12:46:11.711Z,21.30
2023-05-14T12:48:38.921Z,21.30
2023-05-14T12:51:06.626Z,21.30
2023-05-14T12:53:35.378Z,21.20
2023-05-14T12:56:02.600Z,21.40
2023-05-14T12:58:29.994Z,21.60
2023-05-14T13:00:57.165Z,21.50
2023-05-14T13:03:24.423Z,21.50
2023-05-14T13:05:53.450Z,21.40
2023-05-14T13:08:24.910Z,21.70
2023-05-14T13:10:56.274Z,21.30
2023-05-14T13:13:23.879Z,21.10
2023-05-14T13:15:51.182Z,21.40
2023-05-14T13:18:18.635Z,21.40
2023-05-14T13:20:50.038Z,21.50
2023-05-14T13:23:17.132Z,21.30
2023-05-14T13:25:44.209Z,21.20
2023-05-14T13:28:11.632Z,20.80
2023-05-14T13:30:38.896Z,20.70
2023-05-14T13:33:06.361Z,21.00
2023-05-14T13:35:34.787Z,20.70
2023-05-14T13:38:02.026Z,20.30
2023-05-14T13:40:29.131Z,20.60
2023-05-14T13:42:56.283Z,20.40
2023-05-14T13:45:23.524Z,20.50
2023-05-14T13:47:51.629Z,20.20
2023-05-14T13:50:19.025Z,20.30
2023-05-14T13:52:46.082Z,20.70
2023-05-14T13:55:13.170Z,20.80
2023-05-14T13:57:41.755Z,21.30
2023-05-14T14:00:09.651Z,20.60
2023-05-14T14:07:32.655Z,21.00
2023-05-14T14:10:01.574Z,21.00
2023-05-14T14:14:56.099Z,21.50
2023-05-14T14:22:18.378Z,20.60
2023-05-14T14:24:45.727Z,21.50
2023-05-14T14:32:08.148Z,20.40
2023-05-14T14:56:43.527Z,20.40
2023-05-14T15:04:05.790Z,18.90
2023-05-14T15:11:28.956Z,20.30
2023-05-14T15:13:56.104Z,20.20
2023-05-14T15:16:23.294Z,19.60
2023-05-14T15:21:18.069Z,20.00
2023-05-14T15:26:12.729Z,20.10
2023-05-14T15:36:03.065Z,19.30
2023-05-14T15:38:30.154Z,19.40
2023-05-14T15:50:49.774Z,19.50
2023-05-14T15:58:12.903Z,19.80
2023-05-14T16:05:35.100Z,19.10
2023-05-14T16:08:02.199Z,18.80
2023-05-14T16:12:56.898Z,19.90
2023-05-14T16:20:19.300Z,18.70
2023-05-14T16:30:09.446Z,19.10
2023-05-14T16:42:27.633Z,19.80
2023-05-14T16:44:54.698Z,18.50
2023-05-14T16:49:49.357Z,19.30
2023-05-14T16:52:16.508Z,19.40
2023-05-14T16:54:43.797Z,18.40
2023-05-14T16:57:11.008Z,18.60
2023-05-14T17:04:38.880Z,18.50
2023-05-14T17:07:06.168Z,18.20
2023-05-14T17:14:28.240Z,18.90
2023-05-14T17:16:55.513Z,18.90
2023-05-14T17:26:45.037Z,18.90
2023-05-14T17:36:34.627Z,18.00
2023-05-14T17:43:56.716Z,18.30
2023-05-14T17:51:19.076Z,18.00
2023-05-14T17:56:13.995Z,18.40
2023-05-14T18:06:04.609Z,17.80
2023-05-14T18:15:56.577Z,18.00
2023-05-14T18:20:52.592Z,17.50
2023-05-14T18:33:11.061Z,16.80
2023-05-14T18:43:02.959Z,16.50
2023-05-14T18:47:57.752Z,17.30
2023-05-14T18:55:19.780Z,16.90
2023-05-14T18:57:46.909Z,16.60
2023-05-14T19:00:14.926Z,16.40
2023-05-14T19:02:42.171Z,16.70
2023-05-14T19:05:09.960Z,16.40
2023-05-14T19:07:41.041Z,16.20
2023-05-14T19:10:09.267Z,16.20
2023-05-14T19:12:36.393Z,16.10
2023-05-14T19:15:04.544Z,16.10
2023-05-14T19:17:32.840Z,16.10
2023-05-14T19:20:00.123Z,16.00
2023-05-14T19:22:27.202Z,15.90
2023-05-14T19:24:54.247Z,15.90
2023-05-14T19:27:21.373Z,15.90
2023-05-14T19:29:48.495Z,15.80
2023-05-14T19:32:15.600Z,15.70
2023-05-14T19:34:42.729Z,15.60
2023-05-14T19:37:09.860Z,15.60
2023-05-14T19:39:36.904Z,15.50
2023-05-14T19:42:04.271Z,18.70
2023-05-14T19:44:31.891Z,15.50
2023-05-14T19:46:59.080Z,15.50
2023-05-14T19:49:26.300Z,15.70
2023-05-14T19:51:53.358Z,15.50
2023-05-14T19:54:20.421Z,15.50
2023-05-14T19:56:47.538Z,15.50
2023-05-14T19:59:14.604Z,15.40
2023-05-14T20:01:41.861Z,15.40
2023-05-14T20:04:09.068Z,15.40
2023-05-14T20:06:37.008Z,15.40
2023-05-14T20:09:05.890Z,15.40
2023-05-14T20:11:32.980Z,15.40
2023-05-14T20:14:00.141Z,15.30
2023-05-14T20:16:28.596Z,15.30
2023-05-14T20:18:55.991Z,15.20
2023-05-14T20:21:23.299Z,15.20
2023-05-14T20:23:50.434Z,15.10
2023-05-14T20:26:17.556Z,15.10
2023-05-14T20:28:44.641Z,15.00
2023-05-14T20:31:11.844Z,14.90
2023-05-14T20:33:38.978Z,14.90
2023-05-14T20:36:06.601Z,14.80
2023-05-14T20:38:35.105Z,14.80
2023-05-14T20:41:02.469Z,14.80
2023-05-14T20:43:29.624Z,14.80
2023-05-14T20:45:58.984Z,14.80
2023-05-14T20:48:26.336Z,14.70
2023-05-14T20:50:53.485Z,14.70
2023-05-14T20:53:21.102Z,14.60
2023-05-14T20:55:48.253Z,14.60
2023-05-14T20:58:15.333Z,16.40
2023-05-14T21:00:43.367Z,14.50
2023-05-14T21:03:10.898Z,14.40
2023-05-14T21:05:38.330Z,14.40
2023-05-14T21:08:05.768Z,14.40
2023-05-14T21:10:32.886Z,14.40
2023-05-14T21:13:00.422Z,14.50
2023-05-14T21:15:27.853Z,14.40
2023-05-14T21:17:55.030Z,14.20
2023-05-14T21:20:22.172Z,14.20
2023-05-14T21:22:49.227Z,14.30
2023-05-14T21:25:16.475Z,14.30
2023-05-14T21:27:43.613Z,14.30
2023-05-14T21:30:11.570Z,14.30
2023-05-14T21:32:38.923Z,14.30
2023-05-14T21:35:06.526Z,14.30
2023-05-14T21:37:33.830Z,14.30
2023-05-14T21:40:00.916Z,14.30
2023-05-14T21:42:27.975Z,14.20
2023-05-14T21:44:55.052Z,14.20
2023-05-14T21:47:22.275Z,14.20
2023-05-14T21:49:49.365Z,14.20
2023-05-14T21:52:16.451Z,14.10
2023-05-14T21:54:43.998Z,14.10
2023-05-14T21:57:11.143Z,14.10
2023-05-14T21:59:38.189Z,14.10
2023-05-14T22:02:07.379Z,14.00
2023-05-14T22:04:35.429Z,14.00
2023-05-14T22:07:02.925Z,14.00
2023-05-14T22:09:30.498Z,13.90
2023-05-14T22:11:58.397Z,13.90
2023-05-14T22:14:27.306Z,13.90
2023-05-14T22:16:54.551Z,13.80
2023-05-14T22:19:22.361Z,13.80
2023-05-14T22:21:49.529Z,13.70
2023-05-14T22:24:16.613Z,13.70
2023-05-14T22:26:44.142Z,13.70
2023-05-14T22:29:11.314Z,13.70
2023-05-14T22:31:38.443Z,13.70
2023-05-14T22:34:05.566Z,13.60
2023-05-14T22:36:32.654Z,13.50
2023-05-14T22:38:59.778Z,13.50
2023-05-14T22:41:26.991Z,13.50
2023-05-14T22:43:54.051Z,13.40
2023-05-14T22:46:21.425Z,13.40
2023-05-14T22:48:49.302Z,13.40
2023-05-14T22:51:16.701Z,13.40
2023-05-14T22:53:43.963Z,13.40
2023-05-14T22:56:11.072Z,13.40
2023-05-14T22:58:38.216Z,13.40
2023-05-14T23:01:05.623Z,13.40
2023-05-14T23:03:32.725Z,13.40
2023-05-14T23:05:59.874Z,13.30
2023-05-14T23:08:26.994Z,13.30
2023-05-14T23:10:54.088Z,13.20
2023-05-14T23:13:21.288Z,13.20
2023-05-14T23:15:48.850Z,13.20
2023-05-14T23:18:15.993Z,13.20
2023-05-14T23:20:43.882Z,13.20
2023-05-14T23:23:11.262Z,13.20
2023-05-14T23:25:38.416Z,13.10
2023-05-14T23:28:05.686Z,13.10
2023-05-14T23:30:32.846Z,13.10
2023-05-14T23:33:00.181Z,13.00
2023-05-14T23:35:27.589Z,13.00
2023-05-14T23:37:55.303Z,12.90
2023-05-14T23:40:22.510Z,12.90
2023-05-14T23:42:49.660Z,12.90
2023-05-14T23:45:17.057Z,12.90
2023-05-14T23:47:44.308Z,12.80
2023-05-14T23:50:11.523Z,12.80
2023-05-14T23:52:38.683Z,12.70
2023-05-14T23:55:06.528Z,12.70
2023-05-14T23:57:33.724Z,12.70
